createdAt,value
2023-04-15T00:00:38.877Z,6.50
2023-04-15T00:04:20.963Z,6.50
2023-04-15T00:08:02.938Z,6.50
2023-04-15T00:11:45.233Z,6.40
2023-04-15T00:15:27.467Z,6.40
2023-04-15T00:19:09.573Z,6.40
2023-04-15T00:22:51.362Z,6.30
2023-04-15T00:26:33.345Z,6.30
2023-04-15T00:30:15.182Z,6.30
2023-04-15T00:33:57.327Z,6.30
2023-04-15T00:37:39.128Z,6.20
2023-04-15T00:41:23.065Z,6.20
2023-04-15T00:45:05.546Z,6.20
2023-04-15T00:48:47.693Z,6.30
2023-04-15T00:52:29.517Z,6.30
2023-04-15T00:56:11.411Z,6.30
2023-04-15T00:59:53.925Z,6.30
2023-04-15T01:03:36.372Z,6.30
2023-04-15T01:07:18.483Z,6.30
2023-04-15T01:11:03.635Z,6.30
2023-04-15T01:14:45.717Z,6.20
2023-04-15T01:18:28.092Z,6.20
2023-04-15T01:22:10.197Z,6.20
2023-04-15T01:25:53.565Z,6.20
2023-04-15T01:29:38.349Z,6.20
2023-04-15T01:33:20.139Z,6.20
2023-04-15T01:37:01.930Z,6.10
2023-04-15T01:40:43.724Z,6.10
2023-04-15T01:44:25.779Z,6.10
2023-04-15T01:48:08.044Z,6.10
2023-04-15T01:51:50.215Z,6.10
2023-04-15T01:55:32.558Z,6.00
2023-04-15T01:59:14.416Z,6.00
2023-04-15T02:02:56.250Z,6.00
2023-04-15T02:06:38.072Z,6.00
2023-04-15T02:10:19.906Z,5.90
2023-04-15T02:14:01.756Z,5.90
2023-04-15T02:17:46.057Z,5.90
2023-04-15T02:21:28.052Z,5.90
2023-04-15T02:25:10.065Z,5.90
2023-04-15T02:28:51.930Z,6.00
2023-04-15T02:32:33.835Z,6.00
2023-04-15T02:36:15.736Z,6.00
2023-04-15T02:39:57.521Z,6.00
2023-04-15T02:43:40.091Z,5.90
2023-04-15T02:47:21.903Z,6.00
2023-04-15T02:51:32.864Z,5.90
2023-04-15T02:55:14.742Z,5.80
2023-04-15T02:58:56.853Z,5.80
2023-04-15T03:02:39.995Z,5.80
2023-04-15T03:06:21.941Z,5.80
2023-04-15T03:10:04.009Z,5.80
2023-04-15T03:13:45.952Z,5.70
2023-04-15T03:17:27.769Z,5.70
2023-04-15T03:21:09.592Z,5.70
2023-04-15T03:24:51.624Z,5.70
2023-04-15T03:28:33.805Z,5.70
2023-04-15T03:32:15.699Z,5.70
2023-04-15T03:35:57.575Z,5.70
2023-04-15T03:39:39.429Z,5.60
2023-04-15T03:43:21.330Z,5.60
2023-04-15T03:47:03.168Z,5.60
2023-04-15T03:50:45.142Z,5.60
2023-04-15T03:54:27.024Z,5.60
2023-04-15T03:58:12.761Z,5.60
2023-04-15T04:01:54.635Z,5.50
2023-04-15T04:05:39.074Z,5.60
2023-04-15T04:09:21.028Z,5.50
2023-04-15T04:13:02.809Z,5.60
2023-04-15T04:16:45.405Z,5.50
2023-04-15T04:20:27.198Z,5.50
2023-04-15T04:24:08.988Z,5.50
2023-04-15T04:27:50.853Z,5.50
2023-04-15T04:31:32.779Z,5.50
2023-04-15T04:35:14.614Z,5.40
2023-04-15T04:38:56.416Z,5.40
2023-04-15T04:42:39.841Z,5.40
2023-04-15T04:46:22.081Z,5.30
2023-04-15T04:50:04.143Z,5.30
2023-04-15T04:53:46.153Z,5.30
2023-04-15T04:57:27.940Z,5.30
2023-04-15T05:01:10.121Z,5.30
2023-04-15T05:04:54.431Z,5.20
2023-04-15T05:08:37.284Z,5.20
2023-04-15T05:12:19.932Z,5.10
2023-04-15T05:16:02.140Z,5.10
2023-04-15T05:19:44.089Z,5.10
2023-04-15T05:23:26.171Z,5.10
2023-04-15T05:27:08.599Z,5.00
2023-04-15T05:30:50.559Z,5.00
2023-04-15T05:34:32.428Z,5.00
2023-04-15T05:38:14.238Z,5.00
2023-04-15T05:41:56.092Z,5.00
2023-04-15T05:45:37.987Z,5.00
2023-04-15T05:49:20.121Z,5.00
2023-04-15T05:53:02.100Z,4.90
2023-04-15T05:56:43.982Z,4.90
2023-04-15T06:00:26.070Z,5.00
2023-04-15T06:04:07.938Z,5.00
2023-04-15T06:07:50.351Z,5.00
2023-04-15T06:11:32.279Z,5.00
2023-04-15T06:15:14.087Z,5.10
2023-04-15T06:18:55.910Z,5.20
2023-04-15T06:22:39.199Z,5.20
2023-04-15T06:26:21.005Z,5.30
2023-04-15T06:30:02.867Z,5.40
2023-04-15T06:33:44.656Z,5.40
2023-04-15T06:37:26.444Z,5.40
2023-04-15T06:41:11.607Z,5.50
2023-04-15T06:44:53.389Z,5.50
2023-04-15T06:48:35.184Z,5.60
2023-04-15T06:52:16.962Z,5.70
2023-04-15T06:55:58.745Z,5.80
2023-04-15T06:59:40.536Z,5.90
2023-04-15T07:03:22.513Z,6.10
2023-04-15T07:07:04.303Z,6.30
2023-04-15T07:10:47.271Z,6.60
2023-04-15T07:14:29.594Z,6.90
2023-04-15T07:18:11.379Z,7.20
2023-04-15T07:21:53.190Z,7.50
2023-04-15T07:25:37.134Z,7.70
2023-04-15T07:29:20.008Z,8.00
2023-04-15T07:33:02.970Z,8.30
2023-04-15T07:36:45.755Z,8.50
2023-04-15T07:40:28.315Z,8.50
2023-04-15T07:44:10.714Z,8.50
2023-04-15T07:47:54.048Z,8.60
2023-04-15T07:51:35.989Z,8.70
2023-04-15T07:55:20.069Z,8.80
2023-04-15T07:59:06.165Z,9.10
2023-04-15T08:02:48.535Z,9.30
2023-04-15T08:06:30.766Z,9.40
2023-04-15T08:10:12.840Z,9.50
2023-04-15T08:13:54.804Z,9.40
2023-04-15T08:17:36.783Z,9.50
2023-04-15T08:21:20.005Z,9.50
2023-04-15T08:25:02.250Z,9.60
2023-04-15T08:28:45.537Z,9.70
2023-04-15T08:32:27.444Z,9.90
2023-04-15T08:36:09.464Z,10.10
2023-04-15T08:39:51.260Z,10.30
2023-04-15T08:44:01.275Z,10.50
2023-04-15T08:47:45.714Z,10.70
2023-04-15T08:51:28.886Z,10.80
2023-04-15T08:55:12.045Z,10.90
2023-04-15T08:58:54.495Z,10.90
2023-04-15T09:02:36.631Z,11.00
2023-04-15T09:06:19.221Z,10.90
2023-04-15T09:10:01.677Z,10.80
2023-04-15T09:13:43.748Z,10.80
2023-04-15T09:17:26.688Z,10.90
2023-04-15T09:21:14.164Z,11.00
2023-04-15T09:24:55.939Z,11.30
2023-04-15T09:28:44.002Z,11.60
2023-04-15T09:32:25.891Z,11.70
2023-04-15T09:36:07.918Z,11.90
2023-04-15T09:39:52.001Z,12.30
2023-04-15T09:43:40.894Z,12.70
2023-04-15T09:47:31.713Z,13.30
2023-04-15T09:51:14.196Z,14.40
2023-04-15T09:54:58.464Z,15.60
2023-04-15T09:58:41.798Z,16.40
2023-04-15T10:02:24.275Z,16.70
2023-04-15T10:06:06.373Z,16.40
2023-04-15T10:09:49.483Z,16.00
2023-04-15T10:13:37.231Z,15.90
2023-04-15T10:17:23.659Z,15.80
2023-04-15T10:21:06.881Z,15.80
2023-04-15T10:24:49.976Z,15.90
2023-04-15T10:28:32.651Z,16.30
2023-04-15T10:32:17.255Z,16.80
2023-04-15T10:36:03.281Z,16.80
2023-04-15T10:39:45.451Z,16.50
2023-04-15T10:43:27.479Z,16.30
2023-04-15T10:47:20.508Z,16.20
2023-04-15T10:51:02.596Z,16.30
2023-04-15T10:54:47.885Z,16.70
2023-04-15T10:58:43.089Z,16.80
2023-04-15T11:02:48.011Z,16.80
2023-04-15T11:06:45.549Z,17.60
2023-04-15T11:10:30.964Z,17.90
2023-04-15T11:14:16.423Z,17.60
2023-04-15T11:18:23.328Z,17.30
2023-04-15T11:22:11.826Z,17.10
2023-04-15T11:25:55.781Z,17.00
2023-04-15T11:29:37.597Z,17.30
2023-04-15T11:33:19.402Z,17.80
2023-04-15T11:37:03.896Z,18.20
2023-04-15T11:40:47.251Z,18.30
2023-04-15T11:44:29.268Z,18.30
2023-04-15T11:48:13.424Z,18.40
2023-04-15T11:51:55.259Z,18.90
2023-04-15T11:55:48.421Z,20.50
2023-04-15T11:59:45.371Z,21.80
2023-04-15T12:03:39.617Z,21.90
2023-04-15T12:07:21.573Z,21.60
2023-04-15T12:11:03.411Z,22.20
2023-04-15T12:14:45.183Z,22.40
2023-04-15T12:18:27.008Z,21.80
2023-04-15T12:22:14.006Z,21.40
2023-04-15T12:25:55.897Z,21.90
2023-04-15T12:29:40.287Z,22.80
2023-04-15T12:33:22.152Z,22.80
2023-04-15T12:37:06.054Z,22.70
2023-04-15T12:40:48.008Z,23.20
2023-04-15T12:44:29.902Z,24.30
2023-04-15T12:48:11.713Z,25.60
2023-04-15T12:51:55.938Z,26.10
2023-04-15T12:55:37.756Z,25.70
2023-04-15T12:59:19.601Z,24.90
2023-04-15T13:03:02.451Z,23.90
2023-04-15T13:06:45.508Z,23.20
2023-04-15T13:10:29.320Z,23.20
2023-04-15T13:14:13.930Z,23.10
2023-04-15T13:17:55.958Z,23.00
2023-04-15T13:21:37.760Z,22.80
2023-04-15T13:25:20.505Z,22.40
2023-04-15T13:29:02.404Z,22.00
2023-04-15T13:32:44.371Z,22.00
2023-04-15T13:36:27.394Z,23.00
2023-04-15T13:40:09.887Z,24.20
2023-04-15T13:43:51.823Z,25.00
2023-04-15T13:47:33.638Z,25.50
2023-04-15T13:51:15.448Z,25.20
2023-04-15T13:55:17.784Z,24.50
2023-04-15T13:59:01.921Z,24.00
2023-04-15T14:02:44.134Z,23.30
2023-04-15T14:06:27.290Z,22.90
2023-04-15T14:10:09.128Z,23.50
2023-04-15T14:13:51.013Z,24.30
2023-04-15T14:17:33.782Z,25.20
2023-04-15T14:21:15.749Z,25.90
2023-04-15T14:24:57.596Z,26.40
2023-04-15T14:28:39.575Z,26.60
2023-04-15T14:32:21.592Z,27.10
2023-04-15T14:36:04.046Z,27.60
2023-04-15T14:39:45.849Z,28.10
2023-04-15T14:43:27.662Z,28.50
2023-04-15T14:47:09.438Z,28.30
2023-04-15T14:50:51.261Z,27.60
2023-04-15T14:54:33.149Z,27.60
2023-04-15T14:58:15.004Z,27.60
2023-04-15T15:01:57.077Z,27.50
2023-04-15T15:05:40.473Z,27.50
2023-04-15T15:09:23.876Z,27.40
2023-04-15T15:13:07.492Z,27.30
2023-04-15T15:16:49.316Z,27.10
2023-04-15T15:20:31.435Z,26.90
2023-04-15T15:24:13.236Z,26.60
2023-04-15T15:27:56.528Z,26.40
2023-04-15T15:31:38.619Z,26.30
2023-04-15T15:35:22.370Z,26.00
2023-04-15T15:39:05.379Z,25.40
2023-04-15T15:42:49.924Z,24.70
2023-04-15T15:46:31.787Z,23.90
2023-04-15T15:50:14.637Z,23.10
2023-04-15T15:53:56.408Z,22.40
2023-04-15T15:57:38.218Z,21.90
2023-04-15T16:01:20.157Z,21.60
2023-04-15T16:05:02.308Z,21.40
2023-04-15T16:08:44.447Z,21.20
2023-04-15T16:12:26.795Z,20.80
2023-04-15T16:16:08.637Z,20.50
2023-04-15T16:19:59.121Z,20.20
2023-04-15T16:23:42.754Z,19.90
2023-04-15T16:27:24.660Z,19.60
2023-04-15T16:31:06.541Z,19.40
2023-04-15T16:34:48.454Z,19.20
2023-04-15T16:38:30.626Z,19.10
2023-04-15T16:42:12.411Z,19.00
2023-04-15T16:45:54.357Z,19.00
2023-04-15T16:49:36.231Z,18.90
2023-04-15T16:53:18.234Z,18.80
2023-04-15T16:57:00.181Z,18.80
2023-04-15T17:00:42.289Z,18.80
2023-04-15T17:04:24.479Z,18.70
2023-04-15T17:08:06.611Z,18.70
2023-04-15T17:11:49.131Z,18.70
2023-04-15T17:15:31.487Z,18.50
2023-04-15T17:19:13.343Z,18.40
2023-04-15T17:22:55.869Z,18.30
2023-04-15T17:26:38.310Z,18.20
2023-04-15T17:30:20.374Z,18.10
2023-04-15T17:34:09.472Z,17.90
2023-04-15T17:37:52.593Z,17.90
2023-04-15T17:41:34.509Z,17.80
2023-04-15T17:45:16.420Z,17.70
2023-04-15T17:48:58.332Z,17.60
2023-04-15T17:52:40.373Z,17.50
2023-04-15T17:56:22.347Z,17.40
2023-04-15T18:00:05.468Z,17.20
2023-04-15T18:03:47.423Z,17.00
2023-04-15T18:07:29.688Z,16.90
2023-04-15T18:11:12.619Z,16.80
2023-04-15T18:14:54.483Z,16.70
2023-04-15T18:18:36.278Z,16.60
2023-04-15T18:22:18.421Z,16.50
2023-04-15T18:26:00.358Z,16.40
2023-04-15T18:29:42.998Z,16.30
2023-04-15T18:33:24.829Z,16.20
2023-04-15T18:37:06.789Z,16.10
2023-04-15T18:40:48.692Z,16.00
2023-04-15T18:44:30.781Z,15.90
2023-04-15T18:48:14.233Z,15.80
2023-04-15T18:51:56.099Z,15.70
2023-04-15T18:55:41.122Z,15.70
2023-04-15T18:59:29.386Z,15.50
2023-04-15T19:03:12.980Z,15.40
2023-04-15T19:06:55.135Z,15.30
2023-04-15T19:10:37.176Z,15.20
2023-04-15T19:14:19.507Z,15.00
2023-04-15T19:18:01.979Z,14.90
2023-04-15T19:21:46.439Z,14.70
2023-04-15T19:25:28.886Z,14.60
2023-04-15T19:29:11.766Z,14.50
2023-04-15T19:32:54.707Z,14.50
2023-04-15T19:36:37.557Z,14.30
2023-04-15T19:40:20.358Z,14.20
2023-04-15T19:44:07.857Z,14.10
2023-04-15T19:47:50.762Z,14.00
2023-04-15T19:51:33.638Z,13.90
2023-04-15T19:55:16.343Z,13.80
2023-04-15T19:58:59.713Z,13.60
2023-04-15T20:02:41.612Z,13.60
2023-04-15T20:06:23.498Z,13.50
2023-04-15T20:10:12.500Z,13.40
2023-04-15T20:13:56.286Z,13.30
2023-04-15T20:17:38.113Z,13.30
2023-04-15T20:21:20.035Z,13.20
2023-04-15T20:25:03.082Z,13.10
2023-04-15T20:28:45.071Z,13.00
2023-04-15T20:32:28.392Z,12.90
2023-04-15T20:36:10.346Z,12.80
2023-04-15T20:39:52.692Z,12.60
2023-04-15T20:43:34.677Z,12.60
2023-04-15T20:47:16.607Z,12.50
2023-04-15T20:50:58.506Z,12.40
2023-04-15T20:54:40.352Z,12.40
2023-04-15T20:58:22.765Z,12.30
2023-04-15T21:02:05.580Z,12.20
2023-04-15T21:05:48.358Z,12.20
2023-04-15T21:09:31.210Z,12.10
2023-04-15T21:13:16.500Z,12.10
2023-04-15T21:16:58.657Z,12.00
2023-04-15T21:20:40.950Z,12.00
2023-04-15T21:24:23.605Z,12.00
2023-04-15T21:28:06.533Z,12.00
2023-04-15T21:31:48.952Z,11.90
2023-04-15T21:35:31.708Z,11.80
2023-04-15T21:39:13.636Z,11.80
2023-04-15T21:42:55.555Z,11.70
2023-04-15T21:46:37.452Z,11.60
2023-04-15T21:50:21.182Z,11.60
2023-04-15T21:54:03.044Z,11.50
2023-04-15T21:57:45.050Z,11.40
2023-04-15T22:01:27.017Z,11.40
2023-04-15T22:05:08.960Z,11.30
2023-04-15T22:08:56.684Z,11.20
2023-04-15T22:12:52.509Z,11.20
2023-04-15T22:16:34.397Z,11.10
2023-04-15T22:20:16.354Z,11.00
2023-04-15T22:24:32.494Z,11.00
2023-04-15T22:28:00.060Z,10.90
2023-04-15T22:31:42.789Z,10.90
2023-04-15T22:35:24.607Z,10.80
2023-04-15T22:39:06.615Z,10.80
2023-04-15T22:42:48.648Z,10.80
2023-04-15T22:46:30.528Z,10.80
2023-04-15T22:50:12.674Z,10.80
2023-04-15T22:53:55.482Z,10.70
2023-04-15T22:57:37.343Z,10.70
2023-04-15T23:01:19.348Z,10.60
2023-04-15T23:05:04.209Z,10.70
2023-04-15T23:08:54.740Z,10.60
2023-04-15T23:12:36.552Z,10.70
2023-04-15T23:16:18.358Z,10.60
2023-04-15T23:20:00.346Z,10.60
2023-04-15T23:23:42.505Z,10.60
2023-04-15T23:27:24.311Z,10.60
2023-04-15T23:31:06.937Z,10.60
2023-04-15T23:34:48.893Z,10.70
2023-04-15T23:38:30.821Z,10.70
2023-04-15T23:42:12.739Z,10.70
2023-04-15T23:45:54.498Z,10.80
2023-04-15T23:49:37.021Z,10.80
2023-04-15T23:53:18.801Z,10.80
2023-04-15T23:57:00.906Z,10.80
